sensor_id;sensor_type;location;lat;lon;timestamp;P1;durP1;ratioP1;P2;durP2;ratioP2
15502;SDS011;7853;52.186;5.948;2022-07-23T00:03:04;4.51;;;3.61;;
15502;SDS011;7853;52.186;5.948;2022-07-23T00:03:04;5.66;;;3.56;;
15502;SDS011;7853;52.186;5.948;2022-07-23T00:03:04;5.58;;;3.46;;
15502;SDS011;7853;52.186;5.948;2022-07-23T00:03:53;6.51;;;3.59;;
15502;SDS011;7853;52.186;5.948;2022-07-23T00:04:53;6.27;;;3.78;;
15502;SDS011;7853;52.186;5.948;2022-07-23T00:05:53;6.64;;;3.99;;
15502;SDS011;7853;52.186;5.948;2022-07-23T00:06:53;5.88;;;4.02;;
15502;SDS011;7853;52.186;5.948;2022-07-23T00:07:53;4.70;;;3.84;;
15502;SDS011;7853;52.186;5.948;2022-07-23T00:08:53;7.64;;;3.87;;
15502;SDS011;7853;52.186;5.948;2022-07-23T00:09:53;6.01;;;3.63;;
15502;SDS011;7853;52.186;5.948;2022-07-23T00:10:53;6.88;;;3.59;;
15502;SDS011;7853;52.186;5.948;2022-07-23T00:11:53;7.81;;;4.01;;
15502;SDS011;7853;52.186;5.948;2022-07-23T00:12:53;5.13;;;3.67;;
15502;SDS011;7853;52.186;5.948;2022-07-23T00:13:53;4.39;;;3.53;;
15502;SDS011;7853;52.186;5.948;2022-07-23T00:14:53;5.13;;;3.57;;
15502;SDS011;7853;52.186;5.948;2022-07-23T00:15:53;5.22;;;4.02;;
15502;SDS011;7853;52.186;5.948;2022-07-23T00:16:53;6.94;;;3.75;;
15502;SDS011;7853;52.186;5.948;2022-07-23T00:17:53;5.69;;;3.59;;
15502;SDS011;7853;52.186;5.948;2022-07-23T00:18:53;6.05;;;3.89;;
15502;SDS011;7853;52.186;5.948;2022-07-23T00:19:53;5.23;;;4.16;;
15502;SDS011;7853;52.186;5.948;2022-07-23T00:20:53;5.89;;;3.83;;
15502;SDS011;7853;52.186;5.948;2022-07-23T00:21:53;5.86;;;4.23;;
15502;SDS011;7853;52.186;5.948;2022-07-23T00:22:54;8.04;;;4.00;;
15502;SDS011;7853;52.186;5.948;2022-07-23T00:23:53;6.30;;;4.17;;
15502;SDS011;7853;52.186;5.948;2022-07-23T00:24:54;6.05;;;4.27;;
15502;SDS011;7853;52.186;5.948;2022-07-23T00:25:54;5.44;;;3.80;;
15502;SDS011;7853;52.186;5.948;2022-07-23T00:26:54;5.44;;;3.97;;
15502;SDS011;7853;52.186;5.948;2022-07-23T00:27:54;4.21;;;3.79;;
15502;SDS011;7853;52.186;5.948;2022-07-23T00:28:54;5.90;;;3.84;;
15502;SDS011;7853;52.186;5.948;2022-07-23T00:29:54;5.47;;;3.81;;
15502;SDS011;7853;52.186;5.948;2022-07-23T00:30:54;6.01;;;4.02;;
15502;SDS011;7853;52.186;5.948;2022-07-23T00:31:54;4.93;;;3.63;;
15502;SDS011;7853;52.186;5.948;2022-07-23T00:32:55;6.16;;;4.26;;
15502;SDS011;7853;52.186;5.948;2022-07-23T00:33:54;5.66;;;3.90;;
15502;SDS011;7853;52.186;5.948;2022-07-23T00:34:54;7.86;;;4.01;;
15502;SDS011;7853;52.186;5.948;2022-07-23T00:35:54;4.36;;;3.72;;
15502;SDS011;7853;52.186;5.948;2022-07-23T00:36:54;5.70;;;4.00;;
15502;SDS011;7853;52.186;5.948;2022-07-23T00:37:54;5.32;;;4.07;;
15502;SDS011;7853;52.186;5.948;2022-07-23T00:38:54;5.70;;;4.11;;
15502;SDS011;7853;52.186;5.948;2022-07-23T00:39:54;8.11;;;4.16;;
15502;SDS011;7853;52.186;5.948;2022-07-23T00:40:54;5.26;;;4.17;;
15502;SDS011;7853;52.186;5.948;2022-07-23T00:41:55;5.59;;;4.06;;
15502;SDS011;7853;52.186;5.948;2022-07-23T00:42:55;5.29;;;4.13;;
15502;SDS011;7853;52.186;5.948;2022-07-23T00:43:55;5.77;;;4.13;;
15502;SDS011;7853;52.186;5.948;2022-07-23T00:44:55;5.64;;;4.30;;
15502;SDS011;7853;52.186;5.948;2022-07-23T00:45:55;5.91;;;4.15;;
15502;SDS011;7853;52.186;5.948;2022-07-23T00:46:56;7.31;;;3.97;;
15502;SDS011;7853;52.186;5.948;2022-07-23T00:47:55;7.14;;;3.84;;
15502;SDS011;7853;52.186;5.948;2022-07-23T00:48:55;5.57;;;4.00;;
15502;SDS011;7853;52.186;5.948;2022-07-23T00:49:55;5.90;;;3.79;;
15502;SDS011;7853;52.186;5.948;2022-07-23T00:50:55;5.79;;;3.91;;
15502;SDS011;7853;52.186;5.948;2022-07-23T00:51:56;5.92;;;3.79;;
15502;SDS011;7853;52.186;5.948;2022-07-23T00:52:55;4.88;;;3.29;;
15502;SDS011;7853;52.186;5.948;2022-07-23T00:53:55;4.82;;;3.75;;
15502;SDS011;7853;52.186;5.948;2022-07-23T00:54:55;4.82;;;3.59;;
15502;SDS011;7853;52.186;5.948;2022-07-23T00:55:55;5.93;;;3.11;;
15502;SDS011;7853;52.186;5.948;2022-07-23T00:56:55;5.45;;;3.51;;
15502;SDS011;7853;52.186;5.948;2022-07-23T00:57:55;5.16;;;3.62;;
15502;SDS011;7853;52.186;5.948;2022-07-23T00:58:55;5.05;;;3.60;;
15502;SDS011;7853;52.186;5.948;2022-07-23T00:59:56;3.98;;;3.03;;
15502;SDS011;7853;52.186;5.948;2022-07-23T01:00:55;4.79;;;3.18;;
15502;SDS011;7853;52.186;5.948;2022-07-23T01:01:55;3.65;;;3.16;;
15502;SDS011;7853;52.186;5.948;2022-07-23T01:02:56;5.36;;;3.29;;
15502;SDS011;7853;52.186;5.948;2022-07-23T01:03:56;5.27;;;2.99;;
15502;SDS011;7853;52.186;5.948;2022-07-23T01:04:56;4.06;;;3.30;;
15502;SDS011;7853;52.186;5.948;2022-07-23T01:05:56;4.30;;;3.14;;
15502;SDS011;7853;52.186;5.948;2022-07-23T01:06:56;4.40;;;3.30;;
15502;SDS011;7853;52.186;5.948;2022-07-23T01:07:56;4.65;;;3.13;;
15502;SDS011;7853;52.186;5.948;2022-07-23T01:08:56;4.98;;;3.11;;
15502;SDS011;7853;52.186;5.948;2022-07-23T01:09:56;3.61;;;3.17;;
15502;SDS011;7853;52.186;5.948;2022-07-23T01:10:56;5.78;;;3.07;;
15502;SDS011;7853;52.186;5.948;2022-07-23T01:11:56;3.45;;;3.03;;
15502;SDS011;7853;52.186;5.948;2022-07-23T01:12:56;3.55;;;3.11;;
15502;SDS011;7853;52.186;5.948;2022-07-23T01:13:56;5.36;;;3.40;;
15502;SDS011;7853;52.186;5.948;2022-07-23T01:14:57;4.57;;;2.83;;
15502;SDS011;7853;52.186;5.948;2022-07-23T01:15:56;6.49;;;2.97;;
15502;SDS011;7853;52.186;5.948;2022-07-23T01:16:56;3.91;;;2.95;;
15502;SDS011;7853;52.186;5.948;2022-07-23T01:17:56;3.89;;;3.20;;
15502;SDS011;7853;52.186;5.948;2022-07-23T01:18:56;5.28;;;3.04;;
15502;SDS011;7853;52.186;5.948;2022-07-23T01:19:56;4.40;;;3.17;;
15502;SDS011;7853;52.186;5.948;2022-07-23T01:20:56;4.78;;;3.05;;
15502;SDS011;7853;52.186;5.948;2022-07-23T01:21:57;3.95;;;3.05;;
15502;SDS011;7853;52.186;5.948;2022-07-23T01:22:56;4.52;;;3.15;;
15502;SDS011;7853;52.186;5.948;2022-07-23T01:23:56;4.77;;;3.09;;
15502;SDS011;7853;52.186;5.948;2022-07-23T01:24:56;4.54;;;3.02;;
15502;SDS011;7853;52.186;5.948;2022-07-23T01:25:57;5.75;;;2.99;;
15502;SDS011;7853;52.186;5.948;2022-07-23T01:26:57;6.28;;;3.11;;
15502;SDS011;7853;52.186;5.948;2022-07-23T01:27:57;3.99;;;3.27;;
15502;SDS011;7853;52.186;5.948;2022-07-23T01:28:57;4.16;;;2.94;;
15502;SDS011;7853;52.186;5.948;2022-07-23T01:29:57;5.41;;;3.01;;
15502;SDS011;7853;52.186;5.948;2022-07-23T01:30:57;5.18;;;2.93;;
15502;SDS011;7853;52.186;5.948;2022-07-23T01:31:57;4.34;;;3.14;;
15502;SDS011;7853;52.186;5.948;2022-07-23T01:32:57;4.66;;;3.20;;
15502;SDS011;7853;52.186;5.948;2022-07-23T01:33:57;5.43;;;3.14;;
15502;SDS011;7853;52.186;5.948;2022-07-23T01:34:57;4.44;;;2.84;;
15502;SDS011;7853;52.186;5.948;2022-07-23T01:35:57;4.50;;;3.07;;
15502;SDS011;7853;52.186;5.948;2022-07-23T01:36:57;5.37;;;2.86;;
15502;SDS011;7853;52.186;5.948;2022-07-23T01:37:57;5.39;;;3.00;;
15502;SDS011;7853;52.186;5.948;2022-07-23T01:38:57;4.20;;;3.05;;
15502;SDS011;7853;52.186;5.948;2022-07-23T01:39:57;5.65;;;3.27;;
15502;SDS011;7853;52.186;5.948;2022-07-23T01:40:57;5.07;;;3.12;;
15502;SDS011;7853;52.186;5.948;2022-07-23T01:41:57;4.27;;;2.94;;
15502;SDS011;7853;52.186;5.948;2022-07-23T01:42:57;5.06;;;3.34;;
15502;SDS011;7853;52.186;5.948;2022-07-23T01:43:57;6.23;;;3.14;;
15502;SDS011;7853;52.186;5.948;2022-07-23T01:44:57;6.05;;;3.19;;
15502;SDS011;7853;52.186;5.948;2022-07-23T01:45:58;4.41;;;3.09;;
15502;SDS011;7853;52.186;5.948;2022-07-23T01:46:58;6.12;;;3.14;;
15502;SDS011;7853;52.186;5.948;2022-07-23T01:47:58;4.60;;;2.98;;
15502;SDS011;7853;52.186;5.948;2022-07-23T01:48:58;3.54;;;2.89;;
15502;SDS011;7853;52.186;5.948;2022-07-23T01:49:58;3.93;;;2.92;;
15502;SDS011;7853;52.186;5.948;2022-07-23T01:50:58;4.84;;;3.02;;
15502;SDS011;7853;52.186;5.948;2022-07-23T01:51:58;4.04;;;2.88;;
15502;SDS011;7853;52.186;5.948;2022-07-23T01:52:58;4.61;;;3.05;;
15502;SDS011;7853;52.186;5.948;2022-07-23T01:53:58;5.42;;;3.30;;
15502;SDS011;7853;52.186;5.948;2022-07-23T01:54:58;4.37;;;2.89;;
15502;SDS011;7853;52.186;5.948;2022-07-23T01:55:58;4.23;;;2.85;;
15502;SDS011;7853;52.186;5.948;2022-07-23T01:56:58;5.29;;;3.13;;
15502;SDS011;7853;52.186;5.948;2022-07-23T01:57:58;5.98;;;3.38;;
15502;SDS011;7853;52.186;5.948;2022-07-23T01:58:58;5.07;;;2.87;;
15502;SDS011;7853;52.186;5.948;2022-07-23T01:59:58;3.41;;;3.03;;
15502;SDS011;7853;52.186;5.948;2022-07-23T02:00:58;5.21;;;3.05;;
15502;SDS011;7853;52.186;5.948;2022-07-23T02:01:58;5.31;;;3.15;;
15502;SDS011;7853;52.186;5.948;2022-07-23T02:02:58;5.36;;;3.25;;
15502;SDS011;7853;52.186;5.948;2022-07-23T02:03:58;3.55;;;2.85;;
15502;SDS011;7853;52.186;5.948;2022-07-23T02:04:59;6.04;;;3.08;;
15502;SDS011;7853;52.186;5.948;2022-07-23T02:05:59;5.39;;;3.14;;
15502;SDS011;7853;52.186;5.948;2022-07-23T02:06:59;5.14;;;3.25;;
15502;SDS011;7853;52.186;5.948;2022-07-23T02:07:59;4.16;;;2.99;;
15502;SDS011;7853;52.186;5.948;2022-07-23T02:08:59;4.34;;;3.01;;
15502;SDS011;7853;52.186;5.948;2022-07-23T02:09:59;5.14;;;2.85;;
15502;SDS011;7853;52.186;5.948;2022-07-23T02:10:59;6.32;;;2.90;;
15502;SDS011;7853;52.186;5.948;2022-07-23T02:11:59;4.72;;;2.83;;
15502;SDS011;7853;52.186;5.948;2022-07-23T02:12:59;4.63;;;3.27;;
15502;SDS011;7853;52.186;5.948;2022-07-23T02:13:59;4.70;;;2.85;;
15502;SDS011;7853;52.186;5.948;2022-07-23T02:14:59;7.01;;;3.18;;
15502;SDS011;7853;52.186;5.948;2022-07-23T02:15:59;5.09;;;3.02;;
15502;SDS011;7853;52.186;5.948;2022-07-23T02:16:59;5.01;;;2.93;;
15502;SDS011;7853;52.186;5.948;2022-07-23T02:17:59;5.41;;;2.94;;
15502;SDS011;7853;52.186;5.948;2022-07-23T02:18:59;3.92;;;2.68;;
15502;SDS011;7853;52.186;5.948;2022-07-23T02:19:59;4.45;;;3.01;;
15502;SDS011;7853;52.186;5.948;2022-07-23T02:20:59;5.40;;;3.28;;
15502;SDS011;7853;52.186;5.948;2022-07-23T02:21:59;4.81;;;3.10;;
15502;SDS011;7853;52.186;5.948;2022-07-23T02:22:59;3.96;;;3.15;;
15502;SDS011;7853;52.186;5.948;2022-07-23T02:23:59;4.21;;;3.14;;
15502;SDS011;7853;52.186;5.948;2022-07-23T02:24:59;3.01;;;2.70;;
15502;SDS011;7853;52.186;5.948;2022-07-23T02:25:59;4.25;;;2.80;;
15502;SDS011;7853;52.186;5.948;2022-07-23T02:27:00;3.40;;;2.87;;
15502;SDS011;7853;52.186;5.948;2022-07-23T02:28:00;3.82;;;2.82;;
15502;SDS011;7853;52.186;5.948;2022-07-23T02:29:00;3.96;;;3.00;;
15502;SDS011;7853;52.186;5.948;2022-07-23T02:30:00;4.51;;;3.10;;
15502;SDS011;7853;52.186;5.948;2022-07-23T02:31:00;3.75;;;3.06;;
15502;SDS011;7853;52.186;5.948;2022-07-23T02:32:00;3.62;;;2.76;;
15502;SDS011;7853;52.186;5.948;2022-07-23T02:33:00;3.62;;;2.74;;
15502;SDS011;7853;52.186;5.948;2022-07-23T02:34:00;7.82;;;3.03;;
15502;SDS011;7853;52.186;5.948;2022-07-23T02:35:00;3.91;;;2.81;;
15502;SDS011;7853;52.186;5.948;2022-07-23T02:36:00;4.34;;;2.72;;
15502;SDS011;7853;52.186;5.948;2022-07-23T02:37:00;4.49;;;3.01;;
15502;SDS011;7853;52.186;5.948;2022-07-23T02:38:00;4.95;;;3.05;;
15502;SDS011;7853;52.186;5.948;2022-07-23T02:39:00;3.58;;;2.92;;
15502;SDS011;7853;52.186;5.948;2022-07-23T02:40:00;3.72;;;2.73;;
15502;SDS011;7853;52.186;5.948;2022-07-23T02:41:01;3.63;;;2.71;;
15502;SDS011;7853;52.186;5.948;2022-07-23T02:42:01;4.42;;;2.67;;
15502;SDS011;7853;52.186;5.948;2022-07-23T02:43:01;3.90;;;2.88;;
15502;SDS011;7853;52.186;5.948;2022-07-23T02:44:01;4.28;;;2.99;;
15502;SDS011;7853;52.186;5.948;2022-07-23T02:45:01;4.61;;;2.74;;
15502;SDS011;7853;52.186;5.948;2022-07-23T02:46:01;4.85;;;3.02;;
15502;SDS011;7853;52.186;5.948;2022-07-23T02:47:01;6.08;;;2.83;;
15502;SDS011;7853;52.186;5.948;2022-07-23T02:48:01;3.85;;;2.89;;
15502;SDS011;7853;52.186;5.948;2022-07-23T02:49:01;5.47;;;2.86;;
15502;SDS011;7853;52.186;5.948;2022-07-23T02:50:01;4.71;;;3.07;;
15502;SDS011;7853;52.186;5.948;2022-07-23T02:51:01;5.44;;;2.92;;
15502;SDS011;7853;52.186;5.948;2022-07-23T02:52:01;4.63;;;2.95;;
15502;SDS011;7853;52.186;5.948;2022-07-23T02:53:01;6.05;;;3.67;;
15502;SDS011;7853;52.186;5.948;2022-07-23T02:54:01;5.43;;;3.87;;
15502;SDS011;7853;52.186;5.948;2022-07-23T02:55:01;5.94;;;4.04;;
15502;SDS011;7853;52.186;5.948;2022-07-23T02:56:01;5.35;;;4.05;;
15502;SDS011;7853;52.186;5.948;2022-07-23T02:57:01;6.95;;;4.01;;
15502;SDS011;7853;52.186;5.948;2022-07-23T02:58:01;5.54;;;3.81;;
15502;SDS011;7853;52.186;5.948;2022-07-23T02:59:01;5.61;;;3.82;;
15502;SDS011;7853;52.186;5.948;2022-07-23T03:00:05;5.20;;;3.70;;
15502;SDS011;7853;52.186;5.948;2022-07-23T03:01:02;5.21;;;3.79;;
15502;SDS011;7853;52.186;5.948;2022-07-23T03:02:02;5.88;;;3.86;;
15502;SDS011;7853;52.186;5.948;2022-07-23T03:03:02;5.40;;;3.68;;
15502;SDS011;7853;52.186;5.948;2022-07-23T03:04:02;5.10;;;3.47;;
15502;SDS011;7853;52.186;5.948;2022-07-23T03:05:02;4.92;;;3.48;;
15502;SDS011;7853;52.186;5.948;2022-07-23T03:06:02;7.09;;;3.65;;
15502;SDS011;7853;52.186;5.948;2022-07-23T03:07:02;5.84;;;3.48;;
15502;SDS011;7853;52.186;5.948;2022-07-23T03:08:02;4.20;;;3.40;;
15502;SDS011;7853;52.186;5.948;2022-07-23T03:09:02;5.23;;;3.15;;
15502;SDS011;7853;52.186;5.948;2022-07-23T03:10:02;6.12;;;3.44;;
15502;SDS011;7853;52.186;5.948;2022-07-23T03:11:02;4.72;;;3.10;;
15502;SDS011;7853;52.186;5.948;2022-07-23T03:12:02;5.07;;;3.10;;
15502;SDS011;7853;52.186;5.948;2022-07-23T03:13:02;3.65;;;3.12;;
15502;SDS011;7853;52.186;5.948;2022-07-23T03:14:02;4.88;;;3.24;;
15502;SDS011;7853;52.186;5.948;2022-07-23T03:15:02;6.09;;;3.17;;
15502;SDS011;7853;52.186;5.948;2022-07-23T03:16:02;4.75;;;3.42;;
15502;SDS011;7853;52.186;5.948;2022-07-23T03:17:02;5.11;;;3.49;;
15502;SDS011;7853;52.186;5.948;2022-07-23T03:18:02;6.38;;;3.25;;
15502;SDS011;7853;52.186;5.948;2022-07-23T03:19:02;4.82;;;3.53;;
15502;SDS011;7853;52.186;5.948;2022-07-23T03:20:03;4.68;;;3.33;;
15502;SDS011;7853;52.186;5.948;2022-07-23T03:21:03;5.47;;;3.17;;
15502;SDS011;7853;52.186;5.948;2022-07-23T03:22:03;4.23;;;3.14;;
15502;SDS011;7853;52.186;5.948;2022-07-23T03:23:03;3.52;;;2.86;;
15502;SDS011;7853;52.186;5.948;2022-07-23T03:24:03;6.81;;;3.52;;
15502;SDS011;7853;52.186;5.948;2022-07-23T03:25:03;3.74;;;2.97;;
15502;SDS011;7853;52.186;5.948;2022-07-23T03:26:03;4.27;;;2.96;;
15502;SDS011;7853;52.186;5.948;2022-07-23T03:27:03;5.80;;;3.32;;
15502;SDS011;7853;52.186;5.948;2022-07-23T03:28:03;3.45;;;3.03;;
15502;SDS011;7853;52.186;5.948;2022-07-23T03:29:03;4.55;;;3.24;;
15502;SDS011;7853;52.186;5.948;2022-07-23T03:30:04;4.94;;;2.97;;
15502;SDS011;7853;52.186;5.948;2022-07-23T03:31:03;5.85;;;3.27;;
15502;SDS011;7853;52.186;5.948;2022-07-23T03:32:03;4.87;;;3.16;;
15502;SDS011;7853;52.186;5.948;2022-07-23T03:33:03;4.23;;;3.11;;
15502;SDS011;7853;52.186;5.948;2022-07-23T03:34:03;4.97;;;3.09;;
15502;SDS011;7853;52.186;5.948;2022-07-23T03:35:04;4.21;;;2.86;;
15502;SDS011;7853;52.186;5.948;2022-07-23T03:36:03;3.63;;;3.21;;
15502;SDS011;7853;52.186;5.948;2022-07-23T03:37:03;5.67;;;3.27;;
15502;SDS011;7853;52.186;5.948;2022-07-23T03:38:03;3.35;;;3.03;;
15502;SDS011;7853;52.186;5.948;2022-07-23T03:39:04;4.80;;;3.05;;
15502;SDS011;7853;52.186;5.948;2022-07-23T03:40:04;3.59;;;2.88;;
15502;SDS011;7853;52.186;5.948;2022-07-23T03:41:04;4.71;;;2.88;;
15502;SDS011;7853;52.186;5.948;2022-07-23T03:42:04;5.00;;;3.04;;
15502;SDS011;7853;52.186;5.948;2022-07-23T03:43:04;2.87;;;2.56;;
15502;SDS011;7853;52.186;5.948;2022-07-23T03:44:04;5.22;;;3.23;;
15502;SDS011;7853;52.186;5.948;2022-07-23T03:45:04;5.05;;;3.13;;
15502;SDS011;7853;52.186;5.948;2022-07-23T03:46:04;5.32;;;3.25;;
15502;SDS011;7853;52.186;5.948;2022-07-23T03:47:04;3.85;;;2.97;;
15502;SDS011;7853;52.186;5.948;2022-07-23T03:48:04;4.86;;;3.28;;
15502;SDS011;7853;52.186;5.948;2022-07-23T03:49:04;7.06;;;2.93;;
15502;SDS011;7853;52.186;5.948;2022-07-23T03:50:04;5.86;;;2.98;;
15502;SDS011;7853;52.186;5.948;2022-07-23T03:51:04;4.84;;;2.91;;
15502;SDS011;7853;52.186;5.948;2022-07-23T03:52:04;5.23;;;2.91;;
15502;SDS011;7853;52.186;5.948;2022-07-23T03:53:04;5.23;;;3.00;;
15502;SDS011;7853;52.186;5.948;2022-07-23T03:54:04;4.19;;;2.93;;
15502;SDS011;7853;52.186;5.948;2022-07-23T03:55:05;3.77;;;2.93;;
15502;SDS011;7853;52.186;5.948;2022-07-23T03:56:04;4.46;;;3.14;;
15502;SDS011;7853;52.186;5.948;2022-07-23T03:57:04;3.69;;;2.97;;
15502;SDS011;7853;52.186;5.948;2022-07-23T03:58:04;5.33;;;3.10;;
15502;SDS011;7853;52.186;5.948;2022-07-23T03:59:04;4.48;;;3.32;;
15502;SDS011;7853;52.186;5.948;2022-07-23T04:00:05;6.38;;;3.34;;
15502;SDS011;7853;52.186;5.948;2022-07-23T04:01:05;5.22;;;3.17;;
15502;SDS011;7853;52.186;5.948;2022-07-23T04:02:05;4.61;;;3.19;;
15502;SDS011;7853;52.186;5.948;2022-07-23T04:03:05;4.83;;;3.14;;
15502;SDS011;7853;52.186;5.948;2022-07-23T04:04:05;4.48;;;3.11;;
15502;SDS011;7853;52.186;5.948;2022-07-23T04:05:05;4.22;;;3.15;;
15502;SDS011;7853;52.186;5.948;2022-07-23T04:06:05;4.88;;;3.13;;
15502;SDS011;7853;52.186;5.948;2022-07-23T04:07:05;3.91;;;3.21;;
15502;SDS011;7853;52.186;5.948;2022-07-23T04:08:05;3.68;;;3.03;;
15502;SDS011;7853;52.186;5.948;2022-07-23T04:09:05;5.81;;;3.19;;
15502;SDS011;7853;52.186;5.948;2022-07-23T04:10:05;5.20;;;3.44;;
15502;SDS011;7853;52.186;5.948;2022-07-23T04:11:05;4.59;;;3.05;;
15502;SDS011;7853;52.186;5.948;2022-07-23T04:12:05;4.41;;;2.83;;
15502;SDS011;7853;52.186;5.948;2022-07-23T04:13:05;4.41;;;3.22;;
15502;SDS011;7853;52.186;5.948;2022-07-23T04:14:05;3.98;;;3.02;;
15502;SDS011;7853;52.186;5.948;2022-07-23T04:15:07;3.84;;;3.22;;
15502;SDS011;7853;52.186;5.948;2022-07-23T04:16:05;4.57;;;3.23;;
15502;SDS011;7853;52.186;5.948;2022-07-23T04:17:05;3.99;;;2.81;;
15502;SDS011;7853;52.186;5.948;2022-07-23T04:18:05;3.94;;;2.83;;
15502;SDS011;7853;52.186;5.948;2022-07-23T04:19:05;4.88;;;3.21;;
15502;SDS011;7853;52.186;5.948;2022-07-23T04:20:06;4.53;;;3.05;;
15502;SDS011;7853;52.186;5.948;2022-07-23T04:21:05;3.55;;;2.86;;
15502;SDS011;7853;52.186;5.948;2022-07-23T04:22:06;4.61;;;2.85;;
15502;SDS011;7853;52.186;5.948;2022-07-23T04:23:05;5.92;;;3.54;;
15502;SDS011;7853;52.186;5.948;2022-07-23T04:24:06;5.33;;;2.93;;
15502;SDS011;7853;52.186;5.948;2022-07-23T04:25:06;5.05;;;3.37;;
15502;SDS011;7853;52.186;5.948;2022-07-23T04:26:06;6.49;;;3.28;;
15502;SDS011;7853;52.186;5.948;2022-07-23T04:27:06;5.03;;;3.34;;
15502;SDS011;7853;52.186;5.948;2022-07-23T04:28:06;4.87;;;3.36;;
15502;SDS011;7853;52.186;5.948;2022-07-23T04:29:06;5.40;;;3.41;;
15502;SDS011;7853;52.186;5.948;2022-07-23T04:30:06;5.82;;;3.14;;
15502;SDS011;7853;52.186;5.948;2022-07-23T04:31:06;3.83;;;3.09;;
15502;SDS011;7853;52.186;5.948;2022-07-23T04:32:06;4.02;;;2.98;;
15502;SDS011;7853;52.186;5.948;2022-07-23T04:33:06;4.39;;;3.38;;
15502;SDS011;7853;52.186;5.948;2022-07-23T04:34:06;3.48;;;3.18;;
15502;SDS011;7853;52.186;5.948;2022-07-23T04:35:06;5.82;;;3.14;;
15502;SDS011;7853;52.186;5.948;2022-07-23T04:36:06;5.72;;;3.16;;
15502;SDS011;7853;52.186;5.948;2022-07-23T04:37:06;4.22;;;3.15;;
15502;SDS011;7853;52.186;5.948;2022-07-23T04:38:06;8.76;;;3.82;;
15502;SDS011;7853;52.186;5.948;2022-07-23T04:39:06;4.28;;;3.40;;
15502;SDS011;7853;52.186;5.948;2022-07-23T04:40:07;4.74;;;2.97;;
15502;SDS011;7853;52.186;5.948;2022-07-23T04:41:06;5.98;;;3.10;;
15502;SDS011;7853;52.186;5.948;2022-07-23T04:42:06;6.24;;;3.57;;
15502;SDS011;7853;52.186;5.948;2022-07-23T04:43:06;5.19;;;3.37;;
15502;SDS011;7853;52.186;5.948;2022-07-23T04:44:07;6.46;;;3.97;;
15502;SDS011;7853;52.186;5.948;2022-07-23T04:49:18;4.18;;;3.32;;
15502;SDS011;7853;52.186;5.948;2022-07-23T04:50:18;5.25;;;3.61;;
15502;SDS011;7853;52.186;5.948;2022-07-23T04:51:18;5.89;;;3.37;;
15502;SDS011;7853;52.186;5.948;2022-07-23T04:52:18;6.51;;;3.61;;
15502;SDS011;7853;52.186;5.948;2022-07-23T04:53:18;5.26;;;3.89;;
15502;SDS011;7853;52.186;5.948;2022-07-23T04:54:18;4.85;;;3.23;;
15502;SDS011;7853;52.186;5.948;2022-07-23T04:55:18;5.25;;;3.50;;
15502;SDS011;7853;52.186;5.948;2022-07-23T04:56:18;5.67;;;3.54;;
15502;SDS011;7853;52.186;5.948;2022-07-23T04:57:18;4.70;;;3.56;;
15502;SDS011;7853;52.186;5.948;2022-07-23T04:58:19;4.91;;;3.44;;
15502;SDS011;7853;52.186;5.948;2022-07-23T04:59:19;6.03;;;3.52;;
15502;SDS011;7853;52.186;5.948;2022-07-23T05:00:19;6.48;;;3.63;;
15502;SDS011;7853;52.186;5.948;2022-07-23T05:01:19;7.89;;;3.83;;
15502;SDS011;7853;52.186;5.948;2022-07-23T05:02:19;4.97;;;3.52;;
15502;SDS011;7853;52.186;5.948;2022-07-23T05:03:19;4.01;;;3.46;;
15502;SDS011;7853;52.186;5.948;2022-07-23T05:04:19;7.83;;;3.41;;
15502;SDS011;7853;52.186;5.948;2022-07-23T05:05:19;4.59;;;3.50;;
15502;SDS011;7853;52.186;5.948;2022-07-23T05:06:19;6.58;;;3.25;;
15502;SDS011;7853;52.186;5.948;2022-07-23T05:07:19;5.20;;;3.62;;
15502;SDS011;7853;52.186;5.948;2022-07-23T05:08:19;6.34;;;3.54;;
15502;SDS011;7853;52.186;5.948;2022-07-23T05:09:19;3.82;;;3.24;;
15502;SDS011;7853;52.186;5.948;2022-07-23T05:10:19;5.14;;;3.38;;
15502;SDS011;7853;52.186;5.948;2022-07-23T05:11:19;4.84;;;3.64;;
15502;SDS011;7853;52.186;5.948;2022-07-23T05:12:19;4.69;;;3.10;;
15502;SDS011;7853;52.186;5.948;2022-07-23T05:13:19;4.71;;;3.47;;
15502;SDS011;7853;52.186;5.948;2022-07-23T05:14:19;4.86;;;3.45;;
15502;SDS011;7853;52.186;5.948;2022-07-23T05:15:19;4.42;;;3.54;;
15502;SDS011;7853;52.186;5.948;2022-07-23T05:16:19;4.43;;;3.35;;
15502;SDS011;7853;52.186;5.948;2022-07-23T05:17:20;4.28;;;3.19;;
15502;SDS011;7853;52.186;5.948;2022-07-23T05:18:20;5.68;;;3.00;;
15502;SDS011;7853;52.186;5.948;2022-07-23T05:19:20;5.21;;;3.35;;
15502;SDS011;7853;52.186;5.948;2022-07-23T05:20:20;5.90;;;3.39;;
15502;SDS011;7853;52.186;5.948;2022-07-23T05:21:20;6.45;;;3.19;;
15502;SDS011;7853;52.186;5.948;2022-07-23T05:22:20;4.44;;;3.18;;
15502;SDS011;7853;52.186;5.948;2022-07-23T05:23:20;5.21;;;3.36;;
15502;SDS011;7853;52.186;5.948;2022-07-23T05:24:20;5.56;;;3.34;;
15502;SDS011;7853;52.186;5.948;2022-07-23T05:26:36;4.43;;;3.38;;
15502;SDS011;7853;52.186;5.948;2022-07-23T05:27:36;3.78;;;3.12;;
15502;SDS011;7853;52.186;5.948;2022-07-23T05:28:36;5.95;;;3.22;;
15502;SDS011;7853;52.186;5.948;2022-07-23T05:29:36;7.32;;;3.54;;
15502;SDS011;7853;52.186;5.948;2022-07-23T05:30:36;4.64;;;3.24;;
15502;SDS011;7853;52.186;5.948;2022-07-23T05:31:36;5.99;;;3.36;;
15502;SDS011;7853;52.186;5.948;2022-07-23T05:32:36;4.59;;;3.34;;
15502;SDS011;7853;52.186;5.948;2022-07-23T05:33:36;4.57;;;3.24;;
15502;SDS011;7853;52.186;5.948;2022-07-23T05:34:37;6.34;;;2.93;;
15502;SDS011;7853;52.186;5.948;2022-07-23T05:35:37;4.01;;;3.09;;
15502;SDS011;7853;52.186;5.948;2022-07-23T05:36:37;4.81;;;3.48;;
15502;SDS011;7853;52.186;5.948;2022-07-23T05:37:37;3.71;;;3.17;;
15502;SDS011;7853;52.186;5.948;2022-07-23T05:38:37;4.61;;;3.25;;
15502;SDS011;7853;52.186;5.948;2022-07-23T05:39:37;5.14;;;3.28;;
15502;SDS011;7853;52.186;5.948;2022-07-23T05:40:37;5.15;;;3.51;;
15502;SDS011;7853;52.186;5.948;2022-07-23T05:41:37;4.58;;;3.25;;
15502;SDS011;7853;52.186;5.948;2022-07-23T05:42:38;4.18;;;3.53;;
15502;SDS011;7853;52.186;5.948;2022-07-23T05:43:37;4.95;;;3.27;;
15502;SDS011;7853;52.186;5.948;2022-07-23T05:44:37;5.15;;;3.39;;
15502;SDS011;7853;52.186;5.948;2022-07-23T05:45:37;4.27;;;3.41;;
15502;SDS011;7853;52.186;5.948;2022-07-23T05:46:37;5.00;;;3.21;;
15502;SDS011;7853;52.186;5.948;2022-07-23T05:47:39;4.75;;;3.63;;
15502;SDS011;7853;52.186;5.948;2022-07-23T05:48:37;4.91;;;3.39;;
15502;SDS011;7853;52.186;5.948;2022-07-23T05:49:37;4.29;;;3.47;;
15502;SDS011;7853;52.186;5.948;2022-07-23T05:51:20;5.66;;;3.45;;
15502;SDS011;7853;52.186;5.948;2022-07-23T05:52:20;5.83;;;3.98;;
15502;SDS011;7853;52.186;5.948;2022-07-23T05:53:20;6.99;;;4.61;;
15502;SDS011;7853;52.186;5.948;2022-07-23T05:55:16;4.58;;;3.55;;
15502;SDS011;7853;52.186;5.948;2022-07-23T05:56:28;5.76;;;4.22;;
15502;SDS011;7853;52.186;5.948;2022-07-23T05:57:28;6.43;;;4.22;;
15502;SDS011;7853;52.186;5.948;2022-07-23T05:58:28;7.35;;;4.04;;
15502;SDS011;7853;52.186;5.948;2022-07-23T05:59:28;8.81;;;4.40;;
15502;SDS011;7853;52.186;5.948;2022-07-23T06:00:28;4.65;;;3.95;;
15502;SDS011;7853;52.186;5.948;2022-07-23T06:01:28;6.42;;;4.14;;
15502;SDS011;7853;52.186;5.948;2022-07-23T06:02:29;6.42;;;4.17;;
15502;SDS011;7853;52.186;5.948;2022-07-23T06:03:29;6.22;;;4.22;;
15502;SDS011;7853;52.186;5.948;2022-07-23T06:04:29;5.10;;;4.02;;
15502;SDS011;7853;52.186;5.948;2022-07-23T06:05:29;7.23;;;4.14;;
15502;SDS011;7853;52.186;5.948;2022-07-23T06:07:36;6.15;;;4.05;;
15502;SDS011;7853;52.186;5.948;2022-07-23T06:08:36;5.83;;;4.16;;
15502;SDS011;7853;52.186;5.948;2022-07-23T06:09:36;5.17;;;3.92;;
15502;SDS011;7853;52.186;5.948;2022-07-23T06:10:36;5.96;;;3.78;;
15502;SDS011;7853;52.186;5.948;2022-07-23T06:11:36;7.18;;;3.93;;
15502;SDS011;7853;52.186;5.948;2022-07-23T06:12:36;7.10;;;4.08;;
15502;SDS011;7853;52.186;5.948;2022-07-23T06:13:36;7.08;;;4.62;;
15502;SDS011;7853;52.186;5.948;2022-07-23T06:14:36;7.39;;;4.64;;
15502;SDS011;7853;52.186;5.948;2022-07-23T06:15:36;5.91;;;4.10;;